Time;durP1;ratioP1;P1;durP2;ratioP2;P2;SDS_P1;SDS_P2;PMS_P1;PMS_P2;Temp;Humidity;BMP_temperature;BMP_pressure;BME280_temperature;BME280_humidity;BME280_pressure;Samples;Min_cycle;Max_cycle;Signal;HPM_P1;HPM_P2
2023/04/25 00:01:46;;;;;;;26.45;3.97;;;6.80;99.90;;;;;;4878612;29;20128;-80
2023/04/25 00:04:13;;;;;;;14.23;3.08;;;6.70;99.90;;;;;;4892639;29;20190;-80
2023/04/25 00:06:40;;;;;;;14.02;3.05;;;6.70;99.90;;;;;;4862727;29;20411;-80
2023/04/25 00:09:10;;;;;;;17.88;3.15;;;6.70;99.90;;;;;;4862459;29;20064;-79
2023/04/25 00:11:37;;;;;;;14.25;3.10;;;6.70;99.90;;;;;;4862912;29;20041;-80
2023/04/25 00:14:04;;;;;;;15.98;4.05;;;6.70;99.90;;;;;;4862245;29;20190;-80
2023/04/25 00:16:33;;;;;;;13.05;2.65;;;6.70;99.90;;;;;;4862897;29;20053;-79
2023/04/25 00:19:02;;;;;;;13.35;2.80;;;6.70;99.90;;;;;;4862699;29;20128;-80
2023/04/25 00:21:29;;;;;;;17.42;2.90;;;6.70;99.90;;;;;;4877647;29;20098;-79
2023/04/25 00:23:56;;;;;;;10.80;2.78;;;6.70;99.90;;;;;;4877598;29;20081;-80
2023/04/25 00:26:22;;;;;;;13.13;2.95;;;6.60;99.90;;;;;;4877708;29;20083;-79
2023/04/25 00:28:49;;;;;;;14.63;3.10;;;6.50;99.90;;;;;;4877281;29;20200;-80
2023/04/25 00:31:16;;;;;;;17.30;3.10;;;6.50;99.90;;;;;;4873927;29;20518;-80
2023/04/25 00:33:42;;;;;;;13.73;2.92;;;6.50;99.90;;;;;;4874713;29;20054;-80
2023/04/25 00:47:16;;;;;;;18.42;3.10;;;6.40;99.90;;;;;;4894322;29;20547;-79
2023/04/25 00:49:42;;;;;;;18.58;3.30;;;6.40;99.90;;;;;;4876992;29;20041;-80
2023/04/25 00:52:10;;;;;;;16.13;3.00;;;6.40;99.90;;;;;;4874600;29;20403;-79
2023/04/25 00:54:37;;;;;;;11.73;2.45;;;6.30;99.90;;;;;;4847141;29;20049;-80
2023/04/25 00:57:04;;;;;;;14.90;2.95;;;6.40;99.90;;;;;;4876547;29;20038;-80
2023/04/25 00:59:31;;;;;;;14.23;2.80;;;6.30;99.90;;;;;;4892372;29;20045;-80
2023/04/25 01:01:58;;;;;;;14.77;4.00;;;6.30;99.90;;;;;;4876898;29;20076;-80
2023/04/25 01:04:28;;;;;;;12.52;3.00;;;6.30;99.90;;;;;;4861780;29;20053;-80
2023/04/25 01:06:55;;;;;;;11.82;2.60;;;6.40;99.90;;;;;;4891787;29;20073;-80
2023/04/25 01:09:23;;;;;;;14.52;3.58;;;6.30;99.90;;;;;;4861923;29;20498;-80
2023/04/25 01:11:50;;;;;;;15.50;3.30;;;6.30;99.90;;;;;;4862177;29;20042;-80
2023/04/25 01:14:17;;;;;;;10.63;2.53;;;6.30;99.90;;;;;;4861589;29;20057;-79
2023/04/25 01:16:44;;;;;;;10.93;2.88;;;6.20;99.90;;;;;;4892065;29;20057;-79
2023/04/25 01:19:12;;;;;;;17.25;2.53;;;6.20;99.90;;;;;;4876759;29;20057;-80
2023/04/25 01:21:39;;;;;;;13.23;2.47;;;6.30;99.90;;;;;;4873143;29;20217;-80
2023/04/25 01:24:06;;;;;;;22.90;3.03;;;6.10;99.90;;;;;;4858232;29;20415;-80
2023/04/25 01:26:34;;;;;;;14.10;2.50;;;6.10;99.90;;;;;;4858643;29;20052;-80
2023/04/25 01:29:01;;;;;;;10.38;2.15;;;6.10;99.90;;;;;;4858226;29;20518;-80
2023/04/25 01:31:28;;;;;;;21.67;3.45;;;6.20;99.90;;;;;;4858410;29;20042;-80
2023/04/25 01:33:55;;;;;;;15.32;3.00;;;6.20;99.90;;;;;;4875934;29;20053;-80
2023/04/25 01:36:22;;;;;;;13.32;2.85;;;6.20;99.90;;;;;;4876140;29;20132;-80
2023/04/25 01:38:49;;;;;;;15.07;2.75;;;6.10;99.90;;;;;;4876071;29;20061;-80
2023/04/25 01:41:17;;;;;;;12.93;2.47;;;6.10;99.90;;;;;;4860814;29;20140;-80
2023/04/25 01:43:45;;;;;;;13.15;2.20;;;6.10;99.90;;;;;;4876685;29;20128;-80
2023/04/25 01:46:12;;;;;;;11.48;2.67;;;6.10;99.90;;;;;;4876015;29;20041;-80
2023/04/25 01:48:38;;;;;;;14.27;2.45;;;6.10;99.90;;;;;;4876496;29;20045;-80
2023/04/25 01:51:05;;;;;;;14.45;2.22;;;6.10;99.90;;;;;;4860890;29;20045;-80
2023/04/25 01:53:32;;;;;;;11.20;2.15;;;6.20;99.90;;;;;;4891520;29;20077;-80
2023/04/25 01:55:59;;;;;;;8.90;2.10;;;6.20;99.90;;;;;;4860963;29;20041;-79
2023/04/25 01:58:25;;;;;;;14.85;2.30;;;6.10;99.90;;;;;;4861275;29;20444;-80
2023/04/25 02:00:52;;;;;;;11.20;2.20;;;6.10;99.90;;;;;;4876088;29;20049;-80
2023/04/25 02:03:19;;;;;;;13.68;2.38;;;6.10;99.90;;;;;;4891089;29;20041;-80
2023/04/25 02:05:46;;;;;;;11.52;2.53;;;6.10;99.90;;;;;;4876230;29;20467;-80
2023/04/25 02:08:13;;;;;;;14.18;2.67;;;6.10;99.90;;;;;;4872947;29;20133;-80
2023/04/25 02:10:39;;;;;;;22.80;3.13;;;6.00;99.90;;;;;;4858452;29;20038;-80
2023/04/25 02:13:06;;;;;;;13.80;1.83;;;6.00;99.90;;;;;;4887678;29;20088;-80
2023/04/25 02:15:33;;;;;;;11.25;1.92;;;6.10;99.90;;;;;;4860886;29;20065;-80
2023/04/25 02:18:00;;;;;;;7.72;1.65;;;6.10;99.90;;;;;;4860896;29;20051;-79
2023/04/25 02:20:28;;;;;;;17.10;2.55;;;6.00;99.90;;;;;;4860869;29;20479;-79
2023/04/25 02:22:55;;;;;;;7.78;1.80;;;6.00;99.90;;;;;;4891102;29;20045;-80
2023/04/25 02:25:22;;;;;;;11.82;2.17;;;6.00;99.90;;;;;;4860828;29;20419;-80
2023/04/25 02:27:48;;;;;;;12.93;2.30;;;6.00;99.90;;;;;;4861215;29;20042;-80
2023/04/25 02:30:15;;;;;;;11.15;1.92;;;5.90;99.90;;;;;;4860714;29;20046;-80
2023/04/25 02:32:42;;;;;;;10.57;2.60;;;5.90;99.90;;;;;;4845629;29;20052;-80
2023/04/25 02:35:09;;;;;;;7.95;1.90;;;5.90;99.90;;;;;;4875748;29;20057;-80
2023/04/25 02:37:37;;;;;;;11.80;2.60;;;5.90;99.90;;;;;;4860749;29;20049;-80
2023/04/25 02:40:05;;;;;;;11.38;2.15;;;5.90;99.90;;;;;;4891411;29;20065;-79
2023/04/25 02:42:32;;;;;;;15.75;2.85;;;5.80;99.90;;;;;;4875992;29;20050;-80
2023/04/25 02:44:58;;;;;;;14.88;3.03;;;5.80;99.90;;;;;;4875686;29;20068;-80
2023/04/25 02:47:25;;;;;;;12.88;2.33;;;5.70;99.90;;;;;;4875774;29;20208;-80
2023/04/25 02:49:52;;;;;;;16.45;2.70;;;5.70;99.90;;;;;;4861054;29;20057;-80
2023/04/25 02:52:18;;;;;;;11.93;2.03;;;5.60;99.90;;;;;;4878745;29;20056;-80
2023/04/25 02:54:45;;;;;;;8.43;1.90;;;5.60;99.90;;;;;;4860769;29;20122;-80
2023/04/25 02:57:12;;;;;;;12.77;1.98;;;5.60;99.90;;;;;;4875571;29;20412;-80
2023/04/25 02:59:38;;;;;;;10.13;1.80;;;5.50;99.90;;;;;;4876376;29;20072;-79
2023/04/25 03:02:05;;;;;;;10.48;2.35;;;5.50;99.90;;;;;;4875739;29;20067;-80
2023/04/25 03:04:33;;;;;;;12.20;2.25;;;5.50;99.90;;;;;;4863645;29;20045;-80
2023/04/25 03:06:59;;;;;;;10.18;2.58;;;5.50;99.90;;;;;;4863589;29;20562;-80
2023/04/25 03:09:26;;;;;;;9.60;2.13;;;5.50;99.90;;;;;;4863653;29;20745;-79
2023/04/25 03:11:53;;;;;;;9.02;2.20;;;5.40;99.90;;;;;;4863745;29;20050;-80
2023/04/25 03:14:20;;;;;;;8.60;2.08;;;5.30;99.90;;;;;;4878596;29;20053;-80
2023/04/25 03:16:46;;;;;;;10.00;2.08;;;5.30;99.90;;;;;;4879084;29;20053;-80
2023/04/25 03:19:15;;;;;;;7.63;2.20;;;5.30;99.90;;;;;;4863659;29;20084;-80
2023/04/25 03:21:42;;;;;;;8.85;1.83;;;5.30;99.90;;;;;;4879513;29;20049;-79
2023/04/25 03:24:10;;;;;;;10.90;1.90;;;5.20;99.90;;;;;;4878422;29;20113;-79
2023/04/25 03:26:37;;;;;;;12.10;1.77;;;5.20;99.90;;;;;;4863633;29;20483;-80
2023/04/25 03:29:04;;;;;;;6.47;1.40;;;5.20;99.90;;;;;;4878677;29;20052;-80
2023/04/25 03:31:31;;;;;;;11.25;2.38;;;5.20;99.90;;;;;;4893621;29;20459;-80
2023/04/25 03:33:57;;;;;;;12.63;1.90;;;5.20;99.90;;;;;;4894037;29;20076;-80
2023/04/25 03:36:24;;;;;;;8.25;2.05;;;5.20;99.90;;;;;;4862904;29;20497;-80
2023/04/25 03:38:51;;;;;;;8.95;1.80;;;5.30;99.90;;;;;;4878344;29;20045;-80
2023/04/25 03:41:17;;;;;;;10.50;1.85;;;5.10;99.90;;;;;;4878539;29;20049;-80
2023/04/25 03:43:44;;;;;;;7.32;1.70;;;5.10;99.90;;;;;;4878484;29;20117;-80
2023/04/25 03:46:11;;;;;;;10.48;1.95;;;5.10;99.90;;;;;;4878188;29;20124;-80
2023/04/25 03:48:38;;;;;;;5.00;1.80;;;5.10;99.90;;;;;;4878144;29;20045;-80
2023/04/25 03:51:04;;;;;;;8.38;1.70;;;5.10;99.90;;;;;;4863066;29;20048;-79
2023/04/25 03:53:31;;;;;;;7.65;1.40;;;5.20;99.90;;;;;;4863017;29;20057;-80
2023/04/25 03:55:58;;;;;;;4.93;1.35;;;5.00;99.90;;;;;;4877796;29;20080;-79
2023/04/25 03:58:24;;;;;;;12.25;1.92;;;5.00;99.90;;;;;;4862756;29;20076;-80
2023/04/25 04:00:51;;;;;;;7.82;1.40;;;5.10;99.90;;;;;;4878071;29;20144;-80
2023/04/25 04:03:18;;;;;;;7.68;1.80;;;4.90;99.90;;;;;;4861265;29;20102;-80
2023/04/25 04:05:45;;;;;;;4.93;1.60;;;4.80;99.90;;;;;;4862254;29;20062;-80
2023/04/25 04:08:11;;;;;;;10.60;2.38;;;4.80;99.90;;;;;;4874464;29;20054;-80
2023/04/25 04:10:38;;;;;;;10.93;1.67;;;4.80;99.90;;;;;;4828785;29;20046;-80
2023/04/25 04:13:05;;;;;;;10.27;1.60;;;4.80;99.90;;;;;;4861352;29;20077;-80
2023/04/25 04:15:32;;;;;;;5.68;1.65;;;4.70;99.90;;;;;;4892770;29;20053;-80
2023/04/25 04:18:02;;;;;;;6.72;2.20;;;4.70;99.90;;;;;;4862178;29;20056;-80
2023/04/25 04:20:30;;;;;;;6.90;2.00;;;4.80;99.90;;;;;;4878075;29;20057;-80
2023/04/25 04:22:57;;;;;;;12.73;1.65;;;4.60;99.90;;;;;;4859224;29;20038;-80
2023/04/25 04:25:24;;;;;;;8.80;1.73;;;4.70;99.90;;;;;;4844512;29;20121;-80
2023/04/25 04:27:54;;;;;;;11.73;1.92;;;4.70;99.90;;;;;;4860170;29;20038;-79
2023/04/25 04:30:24;;;;;;;7.30;1.50;;;5.10;99.90;;;;;;4830120;29;20038;-80
2023/04/25 04:32:51;;;;;;;9.60;2.05;;;4.70;99.90;;;;;;4850034;29;20503;-80
2023/04/25 04:35:18;;;;;;;12.52;2.03;;;4.90;99.90;;;;;;4844632;29;20076;-80
2023/04/25 04:37:45;;;;;;;7.32;1.55;;;4.80;99.90;;;;;;4859678;29;20054;-80
2023/04/25 04:40:15;;;;;;;15.02;2.63;;;4.80;99.90;;;;;;4874858;29;20054;-80
2023/04/25 04:42:42;;;;;;;6.80;1.50;;;4.80;99.90;;;;;;4858261;29;20087;-80
2023/04/25 04:45:10;;;;;;;7.28;1.40;;;4.80;99.90;;;;;;4860120;29;20077;-80
2023/04/25 04:47:37;;;;;;;7.20;1.92;;;4.90;99.90;;;;;;4859367;29;20042;-80
2023/04/25 04:50:04;;;;;;;7.82;1.48;;;4.90;99.90;;;;;;4859760;29;20046;-80
2023/04/25 04:52:30;;;;;;;7.30;1.88;;;4.90;99.90;;;;;;4860570;29;20130;-80
2023/04/25 04:54:57;;;;;;;11.50;1.92;;;4.90;99.90;;;;;;4877506;29;20042;-80
2023/04/25 04:57:24;;;;;;;8.50;1.60;;;5.00;99.90;;;;;;4876766;29;20080;-80
2023/04/25 04:59:51;;;;;;;8.57;1.45;;;4.90;99.90;;;;;;4862471;29;20042;-80
2023/04/25 05:02:17;;;;;;;3.35;1.13;;;4.90;99.90;;;;;;4877419;29;20049;-79
2023/04/25 05:04:44;;;;;;;6.03;1.25;;;4.90;99.90;;;;;;4846503;29;20145;-80
2023/04/25 05:07:11;;;;;;;7.05;1.50;;;5.00;99.90;;;;;;4876901;29;20049;-80
2023/04/25 05:09:38;;;;;;;5.88;1.17;;;4.90;99.90;;;;;;4891899;29;20156;-80
2023/04/25 05:12:05;;;;;;;6.80;1.88;;;4.90;99.90;;;;;;4861914;29;20042;-79
2023/04/25 05:14:31;;;;;;;4.45;1.45;;;4.90;99.90;;;;;;4861418;29;20045;-80
2023/04/25 05:16:58;;;;;;;9.10;1.77;;;4.90;99.90;;;;;;4876651;29;20052;-80
2023/04/25 05:19:25;;;;;;;5.97;1.30;;;4.90;99.90;;;;;;4861216;29;20506;-79
2023/04/25 05:21:52;;;;;;;11.25;1.45;;;4.80;99.90;;;;;;4876405;29;20415;-80
2023/04/25 05:24:18;;;;;;;6.57;1.10;;;4.80;99.90;;;;;;4861617;29;20041;-80
2023/04/25 05:26:45;;;;;;;9.70;1.60;;;5.10;99.90;;;;;;4876558;29;20136;-80
2023/04/25 05:29:12;;;;;;;4.82;1.20;;;4.90;99.90;;;;;;4861535;29;20136;-80
2023/04/25 05:31:38;;;;;;;5.70;1.77;;;5.00;99.90;;;;;;4876224;29;20041;-80
2023/04/25 05:34:05;;;;;;;4.38;1.38;;;5.00;99.90;;;;;;4857925;29;20046;-80
2023/04/25 05:36:32;;;;;;;6.63;1.63;;;5.10;99.90;;;;;;4872714;29;20132;-79
2023/04/25 05:38:59;;;;;;;9.73;2.15;;;5.10;99.90;;;;;;4842781;29;20073;-79
2023/04/25 05:41:25;;;;;;;7.72;1.95;;;5.20;99.90;;;;;;4858024;29;20466;-79
2023/04/25 05:43:52;;;;;;;7.32;1.80;;;5.10;99.90;;;;;;4865515;29;20518;-79
2023/04/25 05:46:19;;;;;;;7.03;1.38;;;4.90;99.90;;;;;;4873202;29;20033;-79
2023/04/25 05:48:46;;;;;;;4.70;1.13;;;4.80;99.90;;;;;;4860750;29;20124;-79
2023/04/25 05:51:13;;;;;;;4.28;1.25;;;4.80;99.90;;;;;;4876340;29;20585;-79
2023/04/25 05:53:39;;;;;;;10.00;1.58;;;4.70;99.90;;;;;;4891370;29;20086;-79
2023/04/25 05:56:06;;;;;;;5.03;1.17;;;4.70;99.90;;;;;;4861074;29;20049;-79
2023/04/25 05:58:32;;;;;;;7.93;2.28;;;4.70;99.90;;;;;;4875842;29;20046;-79
2023/04/25 06:00:59;;;;;;;6.93;2.05;;;4.70;99.90;;;;;;4876484;29;20046;-79
2023/04/25 06:03:26;;;;;;;8.77;1.67;;;5.00;99.90;;;;;;4876063;29;20041;-79
2023/04/25 06:05:53;;;;;;;4.35;1.45;;;4.70;99.90;;;;;;4857532;29;20067;-79
2023/04/25 06:08:20;;;;;;;7.63;1.67;;;4.70;99.90;;;;;;4855907;29;20041;-79
2023/04/25 06:10:46;;;;;;;4.15;1.20;;;4.80;99.90;;;;;;4860908;29;20037;-79
2023/04/25 06:13:13;;;;;;;9.25;1.50;;;4.80;99.90;;;;;;4878853;29;20056;-79
2023/04/25 06:15:40;;;;;;;10.05;1.70;;;4.90;99.90;;;;;;4861315;29;20050;-79
2023/04/25 06:18:07;;;;;;;10.20;1.98;;;4.90;99.90;;;;;;4876099;29;20049;-79
2023/04/25 06:20:33;;;;;;;7.13;1.48;;;4.80;99.90;;;;;;4860270;29;20053;-79
2023/04/25 06:23:00;;;;;;;6.55;1.38;;;5.00;99.90;;;;;;4861086;29;20430;-80
2023/04/25 06:25:27;;;;;;;9.40;1.80;;;5.00;99.90;;;;;;4861556;29;20490;-80
2023/04/25 06:27:54;;;;;;;9.90;1.85;;;5.20;99.90;;;;;;4834528;29;20906;-80
2023/04/25 06:30:25;;;;;;;6.05;1.30;;;5.20;99.90;;;;;;4847249;29;20137;-80
2023/04/25 06:32:52;;;;;;;9.63;1.70;;;5.30;99.90;;;;;;4846883;29;20437;-80
2023/04/25 06:35:19;;;;;;;6.72;1.70;;;5.40;99.90;;;;;;4863160;29;20046;-79
2023/04/25 06:37:46;;;;;;;7.75;1.70;;;5.40;99.90;;;;;;4864445;29;20490;-79
2023/04/25 06:40:13;;;;;;;5.30;1.48;;;5.50;99.90;;;;;;4864990;29;20060;-79
2023/04/25 06:42:39;;;;;;;9.25;1.58;;;5.50;99.90;;;;;;4864175;29;20049;-79
2023/04/25 06:45:07;;;;;;;10.70;1.83;;;5.60;99.90;;;;;;4895239;29;20653;-79
2023/04/25 06:47:33;;;;;;;10.68;1.73;;;5.50;99.90;;;;;;4861218;29;20408;-80
2023/04/25 06:50:00;;;;;;;6.85;1.90;;;5.50;99.90;;;;;;4846008;29;20045;-80
2023/04/25 06:52:27;;;;;;;6.63;1.50;;;5.50;99.90;;;;;;4846322;29;20133;-80
2023/04/25 06:54:54;;;;;;;9.02;1.60;;;5.50;99.90;;;;;;4860450;29;20106;-80
2023/04/25 06:57:20;;;;;;;7.15;1.33;;;5.50;99.90;;;;;;4857581;29;20037;-80
2023/04/25 06:59:47;;;;;;;6.47;1.15;;;5.50;99.90;;;;;;4879295;29;20049;-80
2023/04/25 07:02:14;;;;;;;5.38;1.40;;;5.60;99.90;;;;;;4862936;29;20033;-81
2023/04/25 07:04:40;;;;;;;3.63;1.10;;;5.70;99.90;;;;;;4878889;29;20056;-81
2023/04/25 07:07:07;;;;;;;7.40;2.20;;;5.80;99.90;;;;;;4866489;29;20511;-80
2023/04/25 07:09:35;;;;;;;8.27;1.75;;;5.90;99.90;;;;;;4867698;29;20435;-80
2023/04/25 07:12:02;;;;;;;4.70;1.38;;;6.00;99.90;;;;;;4862295;29;20101;-80
2023/04/25 07:14:29;;;;;;;11.95;1.55;;;6.20;99.90;;;;;;4895012;29;20044;-81
2023/04/25 07:16:56;;;;;;;12.25;1.42;;;6.40;99.90;;;;;;4879004;29;20053;-80
2023/04/25 07:19:26;;;;;;;6.00;1.33;;;6.70;99.90;;;;;;4879628;29;20080;-80
2023/04/25 07:21:53;;;;;;;8.55;1.60;;;6.70;99.90;;;;;;4864441;29;20048;-81
2023/04/25 07:24:20;;;;;;;7.68;1.30;;;6.70;99.90;;;;;;4878540;29;20102;-80
2023/04/25 07:26:47;;;;;;;8.77;1.67;;;6.50;99.90;;;;;;4878868;29;20078;-80
2023/04/25 07:29:13;;;;;;;7.68;1.42;;;6.40;99.90;;;;;;4863202;29;20109;-80
2023/04/25 07:31:40;;;;;;;3.40;1.15;;;6.30;99.90;;;;;;4863728;29;20045;-80
2023/04/25 07:34:07;;;;;;;11.07;1.20;;;6.30;99.90;;;;;;4862838;29;20109;-81
2023/04/25 07:36:33;;;;;;;10.35;1.50;;;6.20;99.90;;;;;;4863275;29;20049;-80
2023/04/25 07:39:00;;;;;;;3.28;1.13;;;6.30;99.90;;;;;;4861984;29;20042;-82
2023/04/25 07:41:27;;;;;;;5.70;1.05;;;6.40;99.90;;;;;;4863574;29;20076;-80
2023/04/25 07:43:54;;;;;;;4.40;1.20;;;6.50;99.90;;;;;;4862729;29;20057;-80
2023/04/25 07:46:21;;;;;;;2.67;0.75;;;6.60;99.90;;;;;;4878477;29;20136;-80
2023/04/25 07:48:47;;;;;;;3.72;1.00;;;6.70;99.90;;;;;;4878216;29;20129;-78
2023/04/25 07:51:14;;;;;;;4.68;1.30;;;6.80;99.90;;;;;;4877858;29;20041;-78
2023/04/25 07:53:41;;;;;;;3.17;1.00;;;6.80;99.90;;;;;;4862175;29;20056;-78
2023/04/25 07:56:13;;;;;;;6.32;1.52;;;6.90;99.90;;;;;;4893540;29;20057;-85
2023/04/25 07:58:40;;;;;;;5.25;0.98;;;6.80;99.90;;;;;;4879055;29;20060;-83
2023/04/25 08:01:07;;;;;;;9.50;1.63;;;6.70;99.90;;;;;;4859984;29;20053;-83
2023/04/25 08:03:33;;;;;;;6.70;1.27;;;6.90;99.90;;;;;;4830282;29;20105;-86
2023/04/25 08:06:00;;;;;;;5.40;1.23;;;6.90;99.90;;;;;;4829532;29;20175;-84
2023/04/25 08:08:27;;;;;;;7.13;1.30;;;7.10;99.90;;;;;;4859887;29;20415;-80
2023/04/25 08:10:53;;;;;;;4.10;1.20;;;7.30;99.90;;;;;;4848141;29;20058;-80
2023/04/25 08:13:20;;;;;;;6.97;1.50;;;7.50;99.90;;;;;;4862793;29;20045;-80
2023/04/25 08:15:47;;;;;;;8.45;1.58;;;7.80;99.90;;;;;;4878284;29;20056;-80
2023/04/25 08:18:14;;;;;;;10.18;1.38;;;8.00;99.90;;;;;;4877776;29;20137;-81
2023/04/25 08:20:40;;;;;;;4.72;1.05;;;8.20;99.90;;;;;;4877930;29;20056;-80
2023/04/25 08:23:07;;;;;;;4.90;1.00;;;8.40;99.90;;;;;;4877300;29;20419;-80
2023/04/25 08:25:34;;;;;;;8.38;1.20;;;8.50;99.90;;;;;;4862375;29;20418;-80
2023/04/25 08:28:02;;;;;;;6.30;1.40;;;8.40;99.90;;;;;;4877465;29;20132;-80
2023/04/25 08:30:29;;;;;;;7.68;1.17;;;8.30;99.90;;;;;;4877989;29;20494;-80
2023/04/25 08:32:56;;;;;;;4.60;1.30;;;8.10;99.90;;;;;;4877179;29;20739;-80
2023/04/25 08:35:23;;;;;;;6.15;1.20;;;7.80;99.90;;;;;;4847527;29;20132;-80
2023/04/25 08:37:51;;;;;;;5.35;1.45;;;7.60;99.90;;;;;;4877550;29;20101;-80
2023/04/25 08:40:25;;;;;;;9.65;1.30;;;7.50;99.90;;;;;;4877723;29;20080;-80
2023/04/25 08:42:54;;;;;;;6.68;1.27;;;7.70;99.90;;;;;;4892466;29;20456;-80
2023/04/25 08:45:21;;;;;;;9.35;1.40;;;7.80;99.90;;;;;;4877311;29;20537;-80
2023/04/25 08:47:51;;;;;;;4.05;1.08;;;7.60;99.90;;;;;;4893083;29;20052;-80
2023/04/25 08:50:21;;;;;;;5.03;1.15;;;7.30;99.90;;;;;;4877144;29;20456;-80
2023/04/25 08:52:52;;;;;;;3.83;1.00;;;7.20;99.90;;;;;;4877865;29;20410;-80
2023/04/25 08:55:20;;;;;;;4.78;1.25;;;6.90;99.90;;;;;;4877231;29;20125;-80
2023/04/25 08:57:47;;;;;;;3.83;1.05;;;6.80;99.90;;;;;;4892427;29;20545;-80
2023/04/25 09:00:14;;;;;;;3.63;0.98;;;6.70;99.90;;;;;;4877281;29;20092;-80
2023/04/25 09:02:43;;;;;;;5.88;1.20;;;6.70;99.90;;;;;;4861863;29;20105;-80
2023/04/25 09:05:13;;;;;;;9.48;1.30;;;6.70;99.90;;;;;;4891788;29;20594;-80
2023/04/25 09:07:40;;;;;;;38.33;5.43;;;6.80;99.90;;;;;;4892356;29;20125;-79
2023/04/25 09:10:07;;;;;;;9.50;1.42;;;7.00;99.90;;;;;;4892601;29;20038;-80
2023/04/25 09:12:35;;;;;;;4.32;0.93;;;7.10;99.90;;;;;;4858503;29;20042;-81
2023/04/25 09:15:08;;;;;;;5.75;1.00;;;7.20;99.90;;;;;;4873305;29;20464;-80
2023/04/25 09:17:35;;;;;;;4.05;1.00;;;7.30;99.90;;;;;;4896304;29;20049;-80
2023/04/25 09:20:09;;;;;;;11.27;0.93;;;7.40;99.90;;;;;;4864062;29;20044;-80
2023/04/25 09:22:37;;;;;;;6.55;1.30;;;7.50;99.90;;;;;;4883450;29;20555;-80
2023/04/25 09:25:12;;;;;;;8.57;1.05;;;7.80;99.90;;;;;;4863240;29;20077;-80
2023/04/25 09:27:54;;;;;;;3.38;1.00;;;8.00;99.90;;;;;;4895043;29;20052;-79
2023/04/25 09:30:30;;;;;;;5.55;0.98;;;8.10;99.90;;;;;;4876374;29;20495;-80
2023/04/25 09:33:04;;;;;;;9.93;1.20;;;8.10;99.90;;;;;;4877011;29;20576;-80
2023/04/25 09:35:37;;;;;;;6.57;1.13;;;8.20;99.90;;;;;;4877812;29;20053;-80
2023/04/25 09:38:12;;;;;;;6.53;1.58;;;8.30;99.90;;;;;;4861389;29;20121;-79
2023/04/25 09:40:46;;;;;;;7.90;1.10;;;8.20;99.90;;;;;;4862466;29;20472;-79
2023/04/25 09:43:24;;;;;;;4.07;1.20;;;8.10;99.90;;;;;;4876068;29;20444;-79
2023/04/25 09:45:53;;;;;;;6.90;1.10;;;8.20;99.90;;;;;;4861538;29;20162;-80
2023/04/25 09:48:21;;;;;;;4.75;1.13;;;8.30;99.90;;;;;;4876105;29;20785;-80
2023/04/25 09:51:08;;;;;;;5.97;1.42;;;8.50;99.90;;;;;;4876598;29;20044;-80
2023/04/25 09:53:37;;;;;;;6.93;1.13;;;8.90;99.90;;;;;;4861849;29;20049;-79
2023/04/25 09:56:08;;;;;;;7.65;1.20;;;9.00;99.90;;;;;;4856862;29;20054;-80
2023/04/25 09:58:37;;;;;;;5.40;1.05;;;9.20;99.90;;;;;;4873640;29;20415;-79
2023/04/25 10:01:09;;;;;;;4.43;1.00;;;9.20;99.90;;;;;;4875450;29;20068;-79
2023/04/25 10:03:40;;;;;;;3.17;0.85;;;9.30;99.90;;;;;;4876051;29;20037;-80
2023/04/25 10:06:10;;;;;;;8.70;1.20;;;9.10;99.90;;;;;;4861047;29;20082;-80
2023/04/25 10:08:38;;;;;;;5.72;1.02;;;8.90;99.90;;;;;;4876482;29;20041;-79
2023/04/25 10:11:07;;;;;;;5.80;1.05;;;8.70;99.90;;;;;;4861058;29;20037;-80
2023/04/25 10:13:35;;;;;;;5.55;1.00;;;8.60;99.90;;;;;;4876508;29;20074;-81
2023/04/25 10:16:03;;;;;;;3.70;0.93;;;8.50;99.90;;;;;;4875939;29;20415;-80
2023/04/25 10:18:31;;;;;;;4.82;1.17;;;8.50;99.90;;;;;;4861420;29;20503;-80
2023/04/25 10:21:00;;;;;;;7.97;1.30;;;8.70;99.90;;;;;;4891869;29;20053;-80
2023/04/25 10:23:29;;;;;;;6.80;1.55;;;9.00;99.90;;;;;;4860726;29;20510;-80
2023/04/25 10:25:57;;;;;;;5.28;1.17;;;9.10;99.90;;;;;;4876280;29;20042;-80
2023/04/25 10:28:24;;;;;;;6.13;1.20;;;9.30;99.90;;;;;;4875664;29;20049;-79
2023/04/25 10:31:07;;;;;;;5.53;0.93;;;9.40;99.90;;;;;;4876096;29;20547;-80
2023/04/25 10:33:38;;;;;;;3.80;0.80;;;9.50;99.90;;;;;;4862006;29;20498;-80
2023/04/25 10:36:19;;;;;;;4.90;1.10;;;9.60;99.90;;;;;;4861552;29;20040;-80
2023/04/25 10:38:47;;;;;;;6.35;1.10;;;9.70;99.90;;;;;;4891663;29;20152;-80
2023/04/25 10:41:14;;;;;;;4.28;1.02;;;9.70;99.90;;;;;;4861107;29;20060;-80
2023/04/25 10:43:42;;;;;;;8.73;1.98;;;9.90;99.90;;;;;;4860718;29;20056;-78
2023/04/25 10:46:16;;;;;;;7.78;1.38;;;9.60;99.90;;;;;;4891018;29;20046;-78
2023/04/25 10:48:54;;;;;;;3.60;1.00;;;9.10;99.90;;;;;;4891617;29;20075;-79
2023/04/25 10:51:30;;;;;;;3.80;0.90;;;8.90;99.90;;;;;;4875771;29;20491;-80
2023/04/25 10:54:04;;;;;;;3.67;0.73;;;8.40;99.90;;;;;;4876713;29;20151;-80
2023/04/25 10:56:40;;;;;;;3.03;0.90;;;8.20;99.90;;;;;;4857290;29;20085;-79
2023/04/25 10:59:11;;;;;;;;;;;8.00;99.90;;;;;;4873681;29;20046;-79
2023/04/25 11:01:52;;;;;;;4.72;0.80;;;7.60;99.90;;;;;;4872509;29;19936;-79
2023/04/25 11:04:45;;;;;;;4.45;1.00;;;7.50;99.90;;;;;;4872263;29;20050;-80
2023/04/25 11:07:57;;;;;;;4.80;0.90;;;7.60;99.90;;;;;;4855678;29;20076;-80
2023/04/25 11:10:27;;;;;;;39.67;3.97;;;7.70;99.90;;;;;;4868715;29;20050;-79
2023/04/25 11:12:54;;;;;;;4.45;0.88;;;7.90;99.90;;;;;;4874752;29;20533;-80
2023/04/25 11:15:21;;;;;;;6.80;1.10;;;8.10;99.90;;;;;;4861664;29;20050;-79
2023/04/25 11:17:48;;;;;;;7.05;1.15;;;8.40;99.90;;;;;;4863848;29;20491;-79
2023/04/25 11:20:15;;;;;;;3.95;1.17;;;8.70;99.90;;;;;;4863424;29;20050;-80
2023/04/25 11:22:44;;;;;;;6.18;1.20;;;9.10;99.90;;;;;;4894332;29;20101;-79
2023/04/25 11:25:13;;;;;;;4.03;1.35;;;9.60;99.90;;;;;;4879398;29;20050;-80
2023/04/25 11:27:57;;;;;;;8.68;1.52;;;9.40;99.90;;;;;;4878956;29;20045;-80
2023/04/25 11:30:25;;;;;;;6.88;1.10;;;8.50;99.90;;;;;;4863756;29;20049;-80
2023/04/25 11:32:52;;;;;;;6.32;1.38;;;8.10;99.90;;;;;;4863521;29;20056;-80
2023/04/25 11:35:20;;;;;;;7.22;1.30;;;8.00;99.90;;;;;;4863464;29;20140;-80
2023/04/25 11:37:47;;;;;;;5.53;2.13;;;8.00;99.90;;;;;;4893932;29;20049;-79
2023/04/25 11:40:17;;;;;;;5.72;1.20;;;8.00;99.90;;;;;;4894024;29;20117;-80
2023/04/25 11:42:45;;;;;;;8.25;1.10;;;8.10;99.90;;;;;;4878731;29;20117;-80
2023/04/25 11:45:13;;;;;;;5.85;1.40;;;8.10;99.90;;;;;;4893886;29;20133;-80
2023/04/25 11:47:40;;;;;;;8.45;1.20;;;8.40;99.90;;;;;;4878367;29;20037;-80
2023/04/25 11:50:08;;;;;;;6.00;1.85;;;8.80;99.90;;;;;;4863441;29;20048;-79
2023/04/25 11:52:39;;;;;;;5.70;1.10;;;9.20;99.90;;;;;;4878333;29;20074;-80
2023/04/25 11:55:13;;;;;;;4.97;0.80;;;9.40;99.90;;;;;;4893961;29;20739;-80
2023/04/25 11:57:40;;;;;;;3.53;0.80;;;9.60;99.90;;;;;;4877922;29;20097;-80
2023/04/25 12:00:13;;;;;;;4.80;0.98;;;9.80;99.90;;;;;;4863203;29;20055;-79
2023/04/25 12:02:44;;;;;;;4.22;1.00;;;10.10;99.90;;;;;;4878003;29;20041;-80
2023/04/25 12:05:13;;;;;;;7.95;1.27;;;10.20;99.90;;;;;;4863076;29;20478;-80
2023/04/25 12:07:41;;;;;;;3.92;1.10;;;10.30;99.90;;;;;;4847761;29;20053;-80
2023/04/25 12:10:10;;;;;;;3.05;0.80;;;10.20;99.90;;;;;;4863361;29;20042;-80
2023/04/25 12:12:37;;;;;;;5.40;0.93;;;10.60;99.90;;;;;;4862785;29;20414;-80
2023/04/25 12:15:15;;;;;;;5.25;1.10;;;10.50;99.90;;;;;;4893051;29;20052;-80
2023/04/25 12:17:45;;;;;;;7.45;1.17;;;10.30;99.90;;;;;;4877689;29;20396;-80
2023/04/25 12:20:18;;;;;;;8.75;1.10;;;9.90;99.90;;;;;;4893496;29;20076;-80
2023/04/25 12:22:47;;;;;;;6.60;1.20;;;9.80;99.90;;;;;;4893225;29;20041;-80
2023/04/25 12:25:37;;;;;;;8.10;1.33;;;9.90;99.90;;;;;;4859194;29;20048;-80
2023/04/25 12:28:23;;;;;;;6.82;1.40;;;9.90;99.90;;;;;;4859556;29;20049;-80
2023/04/25 12:30:58;;;;;;;5.32;1.25;;;9.80;99.90;;;;;;4874515;29;20491;-80
2023/04/25 12:33:27;;;;;;;8.35;1.58;;;10.00;99.90;;;;;;4864372;29;20038;-80
2023/04/25 12:35:54;;;;;;;6.93;1.30;;;10.20;99.90;;;;;;4877607;29;20532;-80
2023/04/25 12:38:30;;;;;;;15.85;1.80;;;10.40;99.90;;;;;;4877681;29;20132;-80
2023/04/25 12:40:57;;;;;;;9.07;1.60;;;10.30;99.90;;;;;;4893380;29;20045;-80
2023/04/25 12:43:24;;;;;;;9.15;1.90;;;10.20;99.90;;;;;;4892925;29;20507;-80
2023/04/25 12:45:53;;;;;;;7.32;1.30;;;9.70;99.90;;;;;;4877210;29;20047;-80
2023/04/25 12:48:20;;;;;;;5.03;1.00;;;9.30;99.90;;;;;;4859033;29;20583;-80
2023/04/25 12:50:49;;;;;;;3.80;0.90;;;8.80;99.90;;;;;;4859146;29;20049;-79
2023/04/25 12:53:24;;;;;;;4.93;1.30;;;8.20;99.90;;;;;;4859109;29;20053;-80
2023/04/25 12:55:51;;;;;;;5.63;1.10;;;7.90;99.90;;;;;;4874496;29;20132;-80
2023/04/25 12:58:19;;;;;;;3.78;1.15;;;7.60;99.90;;;;;;4877307;29;20140;-80
2023/04/25 13:00:46;;;;;;;7.50;1.30;;;7.60;99.90;;;;;;4877368;29;20101;-80
2023/04/25 13:03:13;;;;;;;7.50;1.00;;;7.90;99.90;;;;;;4892451;29;20046;-80
2023/04/25 13:05:40;;;;;;;4.65;1.10;;;8.30;99.90;;;;;;4862192;29;20506;-80
2023/04/25 13:08:07;;;;;;;8.25;1.17;;;8.60;99.90;;;;;;4877050;29;20506;-80
2023/04/25 13:10:35;;;;;;;6.38;1.30;;;9.00;99.90;;;;;;4861868;29;20053;-80